Terminal Aerodrome Forecast
Issued by NWS

Home | Current Version | Previous Version | Text Only | Print | Product List | Glossary On
Versions: 1 2 3 4 5 6 7 8 9 10 11 12 13 14 15 16 17
000
FTUS43 KICT 291141 AAB
TAFRSL
TAF AMD
KRSL 291141Z 2912/3012 04016KT P6SM SCT008 BKN025
      TEMPO 2912/2916 5SM -TSRA BKN016 OVC035CB
     FM291600 04014G21KT P6SM VCTS OVC020CB
     FM292100 06014G21KT 6SM -TSRA OVC010CB
     FM300200 03014G20KT 5SM -TSRA BR OVC006CB
     FM300900 31015KT 6SM -TSRA BKN008 OVC025CB=

USA.gov is the U.S. government's official web portal to all federal, state and local government web resources and services.